createdAt,value
2024-02-05T00:02:06.546Z,12.27
2024-02-05T00:04:33.360Z,9.32
2024-02-05T00:07:00.578Z,11.45
2024-02-05T00:09:27.342Z,10.63
2024-02-05T00:11:54.470Z,10.60
2024-02-05T00:14:21.352Z,10.25
2024-02-05T00:16:48.486Z,11.90
2024-02-05T00:19:15.282Z,7.40
2024-02-05T00:21:42.772Z,9.48
2024-02-05T00:24:09.479Z,10.55
2024-02-05T00:26:36.540Z,10.88
2024-02-05T00:29:06.326Z,8.95
2024-02-05T00:31:33.128Z,12.00
2024-02-05T00:33:59.995Z,8.93
2024-02-05T00:36:26.884Z,10.13
2024-02-05T00:38:53.731Z,8.00
2024-02-05T00:41:20.467Z,11.23
2024-02-05T00:43:48.580Z,9.73
2024-02-05T00:46:25.139Z,10.10
2024-02-05T00:48:52.106Z,10.55
2024-02-05T00:51:19.002Z,10.20
2024-02-05T00:53:46.150Z,10.32
2024-02-05T00:56:12.938Z,10.23
2024-02-05T00:58:40.350Z,7.85
2024-02-05T01:01:07.432Z,10.05
2024-02-05T01:03:34.760Z,8.95
2024-02-05T01:06:02.144Z,10.55
2024-02-05T01:08:29.063Z,12.15
2024-02-05T01:10:57.529Z,7.85
2024-02-05T01:13:24.737Z,9.00
2024-02-05T01:15:51.697Z,10.90
2024-02-05T01:18:18.765Z,9.52
2024-02-05T01:20:45.528Z,4.05
2024-02-05T01:23:12.742Z,9.88
2024-02-05T01:25:41.354Z,11.60
2024-02-05T01:28:08.699Z,11.00
2024-02-05T01:30:35.655Z,8.57
2024-02-05T01:33:02.467Z,10.57
2024-02-05T01:35:29.277Z,8.32
2024-02-05T01:37:57.384Z,8.38
2024-02-05T01:40:24.657Z,6.72
2024-02-05T01:42:51.568Z,7.82
2024-02-05T01:45:18.349Z,8.32
2024-02-05T01:47:45.648Z,8.73
2024-02-05T01:50:14.053Z,10.18
2024-02-05T01:52:50.408Z,6.07
2024-02-05T01:55:28.253Z,6.47
2024-02-05T01:57:55.231Z,8.25
2024-02-05T02:00:23.203Z,5.05
2024-02-05T02:02:50.391Z,9.13
2024-02-05T02:05:18.468Z,4.82
2024-02-05T02:07:46.493Z,7.18
2024-02-05T02:10:13.681Z,7.35
2024-02-05T02:12:40.446Z,4.25
2024-02-05T02:15:07.491Z,6.88
2024-02-05T02:17:38.807Z,4.03
2024-02-05T02:20:06.861Z,5.78
2024-02-05T02:22:37.643Z,4.38
2024-02-05T02:25:04.708Z,7.22
2024-02-05T02:27:31.868Z,6.57
2024-02-05T02:29:59.059Z,4.63
2024-02-05T02:32:25.844Z,6.82
2024-02-05T02:34:56.141Z,6.35
2024-02-05T02:37:28.687Z,7.15
2024-02-05T02:40:10.953Z,4.90
2024-02-05T02:42:41.514Z,2.95
2024-02-05T02:45:10.255Z,3.45
2024-02-05T02:47:37.145Z,7.30
2024-02-05T02:50:04.736Z,6.97
2024-02-05T02:52:31.505Z,7.20
2024-02-05T02:54:58.664Z,4.95
2024-02-05T02:57:25.371Z,5.60
2024-02-05T02:59:54.325Z,7.22
2024-02-05T03:02:21.352Z,5.80
2024-02-05T03:04:48.751Z,5.22
2024-02-05T03:07:15.667Z,4.70
2024-02-05T03:09:44.741Z,6.70
2024-02-05T03:12:11.440Z,6.15
2024-02-05T03:14:38.743Z,6.82
2024-02-05T03:17:05.480Z,5.72
2024-02-05T03:19:33.196Z,6.60
2024-02-05T03:22:01.163Z,6.82
2024-02-05T03:24:28.578Z,6.68
2024-02-05T03:26:55.300Z,6.40
2024-02-05T03:29:23.093Z,7.18
2024-02-05T03:31:49.906Z,4.95
2024-02-05T03:34:18.372Z,3.20
2024-02-05T03:36:45.429Z,5.85
2024-02-05T03:39:12.613Z,7.45
2024-02-05T03:41:39.655Z,6.78
2024-02-05T03:44:06.378Z,6.75
2024-02-05T03:46:33.090Z,4.20
2024-02-05T03:49:00.140Z,4.63
2024-02-05T03:51:27.398Z,4.78
2024-02-05T03:53:54.287Z,6.53
2024-02-05T03:56:21.043Z,7.80
2024-02-05T03:58:49.824Z,6.60
2024-02-05T04:01:16.825Z,2.10
2024-02-05T04:03:44.330Z,6.63
2024-02-05T04:06:11.226Z,8.30
2024-02-05T04:08:38.426Z,7.57
2024-02-05T04:11:05.255Z,5.95
2024-02-05T04:13:31.991Z,7.85
2024-02-05T04:15:58.854Z,6.55
2024-02-05T04:18:25.720Z,5.38
2024-02-05T04:20:57.442Z,7.13
2024-02-05T04:23:27.186Z,6.03
2024-02-05T04:25:54.022Z,7.03
2024-02-05T04:28:21.006Z,7.00
2024-02-05T04:30:47.983Z,8.23
2024-02-05T04:33:14.841Z,4.75
2024-02-05T04:35:41.619Z,7.50
2024-02-05T04:38:08.422Z,4.60
2024-02-05T04:40:35.160Z,6.85
2024-02-05T04:43:02.167Z,6.75
2024-02-05T04:45:29.437Z,8.73
2024-02-05T04:47:56.362Z,7.32
2024-02-05T04:50:23.232Z,7.43
2024-02-05T04:52:50.397Z,6.35
2024-02-05T04:55:17.207Z,8.40
2024-02-05T04:57:49.800Z,9.07
2024-02-05T05:00:17.980Z,7.20
2024-02-05T05:02:44.755Z,7.53
2024-02-05T05:05:11.627Z,8.13
2024-02-05T05:07:38.476Z,6.28
2024-02-05T05:10:05.564Z,9.77
2024-02-05T05:12:32.701Z,7.47
2024-02-05T05:14:59.463Z,6.70
2024-02-05T05:17:26.318Z,8.20
2024-02-05T05:19:53.255Z,5.35
2024-02-05T05:22:20.296Z,7.68
2024-02-05T05:24:47.185Z,7.22
2024-02-05T05:27:13.974Z,7.55
2024-02-05T05:29:40.686Z,7.60
2024-02-05T05:32:07.478Z,8.52
2024-02-05T05:34:34.366Z,8.02
2024-02-05T05:37:01.221Z,6.97
2024-02-05T05:39:28.369Z,7.88
2024-02-05T05:41:55.062Z,8.65
2024-02-05T05:44:21.816Z,8.45
2024-02-05T05:46:48.546Z,6.35
2024-02-05T05:49:15.326Z,9.15
2024-02-05T05:51:42.397Z,9.00
2024-02-05T05:54:09.765Z,8.90
2024-02-05T05:56:36.600Z,9.77
2024-02-05T05:59:03.348Z,8.93
2024-02-05T06:01:30.601Z,8.63
2024-02-05T06:03:58.540Z,8.02
2024-02-05T06:06:25.346Z,10.57
2024-02-05T06:08:52.388Z,9.15
2024-02-05T06:11:19.131Z,9.45
2024-02-05T06:13:46.172Z,10.07
2024-02-05T06:16:13.409Z,9.88
2024-02-05T06:18:40.590Z,8.57
2024-02-05T06:21:08.015Z,8.50
2024-02-05T06:23:34.815Z,9.30
2024-02-05T06:26:01.703Z,10.82
2024-02-05T06:28:28.497Z,9.02
2024-02-05T06:30:55.334Z,8.25
2024-02-05T06:33:22.494Z,5.72
2024-02-05T06:35:49.334Z,9.93
2024-02-05T06:38:16.347Z,8.23
2024-02-05T06:40:43.065Z,9.77
2024-02-05T06:43:10.032Z,8.07
2024-02-05T06:45:38.483Z,9.35
2024-02-05T06:48:06.236Z,9.18
2024-02-05T06:50:33.283Z,9.27
2024-02-05T06:53:00.476Z,8.85
2024-02-05T06:55:28.253Z,5.03
2024-02-05T06:57:55.236Z,7.68
2024-02-05T07:00:22.342Z,9.35
2024-02-05T07:02:51.082Z,8.93
2024-02-05T07:05:19.593Z,9.35
2024-02-05T07:07:46.361Z,8.68
2024-02-05T07:10:13.173Z,9.00
2024-02-05T07:12:40.585Z,9.02
2024-02-05T07:15:07.928Z,9.00
2024-02-05T07:17:35.928Z,8.63
2024-02-05T07:20:04.011Z,6.45
2024-02-05T07:22:31.907Z,6.43
2024-02-05T07:24:59.127Z,9.10
2024-02-05T07:27:27.705Z,9.20
2024-02-05T07:29:55.127Z,8.73
2024-02-05T07:32:22.042Z,5.85
2024-02-05T07:34:49.174Z,9.50
2024-02-05T07:37:16.346Z,9.73
2024-02-05T07:39:43.358Z,6.65
2024-02-05T07:42:10.526Z,7.22
2024-02-05T07:44:37.502Z,7.20
2024-02-05T07:47:04.866Z,7.15
2024-02-05T07:49:31.618Z,7.47
2024-02-05T07:51:58.505Z,8.32
2024-02-05T07:54:27.044Z,7.43
2024-02-05T07:56:53.965Z,6.82
2024-02-05T07:59:20.752Z,8.05
2024-02-05T08:01:47.714Z,6.50
2024-02-05T08:04:14.578Z,7.90
2024-02-05T08:06:41.555Z,4.97
2024-02-05T08:09:08.569Z,7.72
2024-02-05T08:11:35.264Z,7.03
2024-02-05T08:14:02.388Z,7.90
2024-02-05T08:16:30.054Z,6.25
2024-02-05T08:18:56.997Z,6.40
2024-02-05T08:21:23.909Z,6.70
2024-02-05T08:23:52.204Z,4.40
2024-02-05T08:26:19.624Z,6.65
2024-02-05T08:28:47.746Z,7.28
2024-02-05T08:31:14.791Z,7.38
2024-02-05T08:33:41.817Z,7.03
2024-02-05T08:36:08.856Z,7.00
2024-02-05T08:38:35.631Z,6.80
2024-02-05T08:41:02.430Z,6.90
2024-02-05T08:43:29.257Z,6.60
2024-02-05T08:45:56.450Z,5.55
2024-02-05T08:48:23.551Z,6.72
2024-02-05T08:50:50.366Z,7.30
2024-02-05T08:53:17.334Z,6.07
2024-02-05T08:55:44.207Z,6.32
2024-02-05T08:58:11.156Z,5.90
2024-02-05T09:00:38.239Z,6.88
2024-02-05T09:03:08.869Z,5.35
2024-02-05T09:05:43.602Z,5.60
2024-02-05T09:08:13.460Z,4.63
2024-02-05T09:10:40.731Z,5.68
2024-02-05T09:13:07.680Z,5.20
2024-02-05T09:15:35.569Z,3.65
2024-02-05T09:18:02.718Z,6.10
2024-02-05T09:20:29.981Z,5.57
2024-02-05T09:22:57.384Z,5.40
2024-02-05T09:25:24.374Z,6.25
2024-02-05T09:27:52.973Z,4.35
2024-02-05T09:30:22.463Z,3.50
2024-02-05T09:32:49.942Z,4.53
2024-02-05T09:35:16.871Z,3.63
2024-02-05T09:37:43.906Z,3.83
2024-02-05T09:40:10.882Z,5.70
2024-02-05T09:42:38.340Z,6.13
2024-02-05T09:45:07.876Z,5.18
2024-02-05T09:47:35.240Z,5.45
2024-02-05T09:50:04.570Z,4.75
2024-02-05T09:52:32.091Z,5.22
2024-02-05T09:55:00.186Z,4.07
2024-02-05T09:57:30.654Z,5.93
2024-02-05T09:59:57.563Z,4.07
2024-02-05T10:02:25.383Z,6.30
2024-02-05T10:04:52.962Z,5.60
2024-02-05T10:07:20.409Z,5.80
2024-02-05T10:09:47.836Z,5.95
2024-02-05T10:12:15.105Z,5.28
2024-02-05T10:14:43.146Z,4.68
2024-02-05T10:17:10.897Z,5.00
2024-02-05T10:19:38.067Z,3.40
2024-02-05T10:22:08.410Z,5.32
2024-02-05T10:24:40.554Z,5.43
2024-02-05T10:27:07.390Z,4.90
2024-02-05T10:29:34.599Z,5.88
2024-02-05T10:32:02.303Z,5.65
2024-02-05T10:34:29.322Z,4.97
2024-02-05T10:37:04.969Z,4.82
2024-02-05T10:39:31.697Z,3.15
2024-02-05T10:41:58.534Z,4.22
2024-02-05T10:44:34.411Z,5.63
2024-02-05T10:47:07.979Z,5.60
2024-02-05T10:49:35.852Z,5.88
2024-02-05T10:52:05.261Z,5.57
2024-02-05T10:54:35.994Z,6.22
2024-02-05T10:57:03.099Z,4.15
2024-02-05T10:59:29.873Z,5.45
2024-02-05T11:02:05.214Z,5.20
2024-02-05T11:04:33.089Z,4.20
2024-02-05T11:07:01.678Z,5.03
2024-02-05T11:09:31.720Z,2.13
2024-02-05T11:12:02.998Z,3.42
2024-02-05T11:14:30.949Z,3.33
2024-02-05T11:16:57.940Z,3.72
2024-02-05T11:19:25.140Z,5.80
2024-02-05T11:21:56.842Z,5.38
2024-02-05T11:24:24.596Z,6.05
2024-02-05T11:26:53.949Z,5.75
2024-02-05T11:29:24.865Z,5.45
2024-02-05T11:31:53.453Z,3.60
2024-02-05T11:34:21.222Z,4.32
2024-02-05T11:36:48.487Z,5.00
2024-02-05T11:39:17.924Z,5.43
2024-02-05T11:41:44.899Z,5.85
2024-02-05T11:44:16.674Z,4.78
2024-02-05T11:46:44.150Z,6.90
2024-02-05T11:49:11.197Z,6.43
2024-02-05T11:51:41.531Z,6.18
2024-02-05T11:54:08.576Z,5.22
2024-02-05T11:56:40.375Z,5.38
2024-02-05T11:59:11.931Z,5.85
2024-02-05T12:01:39.130Z,6.78
2024-02-05T12:04:06.266Z,6.78
2024-02-05T12:06:33.202Z,5.70
2024-02-05T12:09:00.718Z,6.45
2024-02-05T12:11:27.505Z,5.55
2024-02-05T12:14:01.751Z,7.22
2024-02-05T12:16:31.386Z,5.20
2024-02-05T12:19:10.989Z,7.43
2024-02-05T12:21:40.692Z,6.20
2024-02-05T12:24:07.938Z,7.93
2024-02-05T12:26:35.490Z,7.32
2024-02-05T12:29:02.395Z,6.88
2024-02-05T12:31:29.184Z,6.75
2024-02-05T12:34:01.283Z,6.28
2024-02-05T12:36:30.562Z,6.80
2024-02-05T12:38:57.883Z,7.45
2024-02-05T12:41:24.856Z,6.25
2024-02-05T12:43:51.736Z,6.55
2024-02-05T12:46:18.728Z,6.43
2024-02-05T12:48:46.054Z,6.13
2024-02-05T12:51:13.030Z,5.63
2024-02-05T12:53:42.693Z,5.60
2024-02-05T12:56:13.884Z,4.97
2024-02-05T12:58:42.189Z,5.85
2024-02-05T13:01:13.013Z,6.45
2024-02-05T13:03:43.435Z,4.68
2024-02-05T13:06:10.557Z,5.05
2024-02-05T13:08:42.425Z,5.00
2024-02-05T13:11:09.855Z,5.10
2024-02-05T13:13:37.155Z,4.90
2024-02-05T13:16:04.873Z,4.97
2024-02-05T13:18:31.914Z,4.07
2024-02-05T13:20:58.868Z,4.00
2024-02-05T13:23:25.666Z,3.80
2024-02-05T13:25:52.745Z,3.78
2024-02-05T13:28:20.533Z,3.75
2024-02-05T13:30:47.969Z,3.65
2024-02-05T13:33:15.042Z,1.88
2024-02-05T13:35:42.013Z,4.07
2024-02-05T13:38:08.938Z,4.60
2024-02-05T13:40:36.270Z,3.78
2024-02-05T13:43:04.104Z,4.53
2024-02-05T13:45:31.157Z,4.65
2024-02-05T13:47:59.173Z,5.35
2024-02-05T13:50:26.536Z,4.30
2024-02-05T13:52:55.868Z,4.93
2024-02-05T13:55:22.951Z,5.88
2024-02-05T13:57:49.914Z,5.38
2024-02-05T14:00:16.689Z,4.60
2024-02-05T14:02:43.741Z,3.83
2024-02-05T14:05:12.183Z,4.13
2024-02-05T14:07:39.713Z,2.70
2024-02-05T14:10:07.167Z,4.75
2024-02-05T14:12:34.511Z,3.22
2024-02-05T14:15:01.393Z,4.45
2024-02-05T14:17:28.362Z,3.63
2024-02-05T14:19:55.336Z,3.78
2024-02-05T14:22:22.454Z,4.72
2024-02-05T14:24:49.230Z,3.67
2024-02-05T14:27:16.090Z,4.45
2024-02-05T14:29:43.583Z,5.35
2024-02-05T14:32:10.428Z,4.30
2024-02-05T14:34:37.524Z,5.40
2024-02-05T14:37:04.884Z,6.07
2024-02-05T14:39:31.733Z,5.35
2024-02-05T14:41:58.534Z,5.80
2024-02-05T14:44:25.623Z,5.57
2024-02-05T14:46:52.502Z,5.55
2024-02-05T14:49:22.521Z,5.05
2024-02-05T14:51:49.829Z,5.90
2024-02-05T14:54:16.768Z,5.10
2024-02-05T14:56:43.772Z,5.32
2024-02-05T14:59:10.605Z,5.35
2024-02-05T15:01:37.882Z,4.95
2024-02-05T15:04:06.045Z,5.63
2024-02-05T15:06:33.145Z,7.22
2024-02-05T15:09:00.312Z,5.40
2024-02-05T15:11:27.216Z,5.13
2024-02-05T15:13:54.490Z,6.15
2024-02-05T15:16:21.517Z,5.47
2024-02-05T15:18:49.308Z,6.30
2024-02-05T15:21:17.533Z,4.57
2024-02-05T15:23:44.502Z,4.28
2024-02-05T15:26:11.784Z,5.93
2024-02-05T15:28:41.362Z,5.43
2024-02-05T15:31:09.521Z,6.30
2024-02-05T15:33:37.811Z,3.83
2024-02-05T15:36:06.346Z,3.45
2024-02-05T15:38:33.893Z,5.00
2024-02-05T15:41:00.828Z,6.00
2024-02-05T15:43:28.511Z,5.22
2024-02-05T15:45:55.714Z,5.10
2024-02-05T15:48:27.261Z,5.95
2024-02-05T15:50:54.700Z,6.70
2024-02-05T15:53:21.552Z,5.32
2024-02-05T15:55:48.599Z,6.03
2024-02-05T15:58:16.655Z,7.18
2024-02-05T16:00:44.561Z,6.90
2024-02-05T16:03:11.535Z,6.53
2024-02-05T16:05:39.631Z,7.25
2024-02-05T16:08:07.692Z,5.88
2024-02-05T16:10:36.517Z,8.15
2024-02-05T16:13:03.685Z,7.50
2024-02-05T16:15:30.761Z,6.97
2024-02-05T16:17:57.635Z,5.70
2024-02-05T16:20:24.667Z,6.65
2024-02-05T16:22:53.016Z,6.78
2024-02-05T16:25:23.506Z,7.88
2024-02-05T16:27:51.346Z,6.18
2024-02-05T16:30:18.669Z,6.93
2024-02-05T16:32:46.338Z,5.75
2024-02-05T16:35:13.600Z,6.47
2024-02-05T16:37:40.585Z,7.88
2024-02-05T16:40:09.913Z,6.70
2024-02-05T16:42:36.853Z,8.45
2024-02-05T16:45:03.946Z,6.13
2024-02-05T16:47:31.472Z,5.90
2024-02-05T16:49:58.597Z,4.85
2024-02-05T16:52:25.684Z,6.75
2024-02-05T16:54:52.702Z,5.43
2024-02-05T16:57:19.696Z,6.03
2024-02-05T16:59:48.491Z,5.80
2024-02-05T17:02:16.985Z,6.07
2024-02-05T17:04:45.183Z,7.28
2024-02-05T17:07:12.990Z,6.13
2024-02-05T17:09:40.199Z,5.75
2024-02-05T17:12:08.918Z,6.25
2024-02-05T17:14:35.647Z,6.88
2024-02-05T17:17:04.057Z,6.97
2024-02-05T17:19:31.263Z,6.18
2024-02-05T17:21:58.850Z,3.95
2024-02-05T17:24:26.370Z,6.10
2024-02-05T17:26:53.276Z,6.82
2024-02-05T17:29:21.243Z,6.82
2024-02-05T17:31:48.364Z,3.75
2024-02-05T17:34:15.364Z,6.30
2024-02-05T17:36:42.337Z,5.75
2024-02-05T17:39:10.748Z,4.57
2024-02-05T17:41:40.608Z,5.40
2024-02-05T17:44:07.715Z,6.00
2024-02-05T17:46:35.460Z,5.60
2024-02-05T17:49:04.185Z,5.32
2024-02-05T17:51:31.457Z,5.40
2024-02-05T17:53:59.895Z,4.75
2024-02-05T17:56:26.922Z,6.13
2024-02-05T17:58:53.709Z,4.15
2024-02-05T18:01:20.868Z,5.05
2024-02-05T18:03:48.181Z,4.13
2024-02-05T18:06:22.736Z,5.45
2024-02-05T18:08:50.476Z,5.40
2024-02-05T18:11:17.674Z,2.88
2024-02-05T18:13:44.507Z,2.42
2024-02-05T18:16:12.044Z,3.97
2024-02-05T18:18:39.269Z,4.35
2024-02-05T18:21:06.739Z,5.15
2024-02-05T18:23:33.560Z,4.72
2024-02-05T18:26:00.314Z,5.20
2024-02-05T18:28:28.194Z,4.38
2024-02-05T18:30:55.538Z,4.60
2024-02-05T18:33:22.557Z,5.60
2024-02-05T18:35:49.341Z,4.78
2024-02-05T18:38:16.079Z,5.25
2024-02-05T18:40:43.398Z,6.00
2024-02-05T18:43:10.216Z,5.72
2024-02-05T18:45:38.139Z,5.68
2024-02-05T18:48:05.888Z,5.53
2024-02-05T18:50:36.391Z,3.08
2024-02-05T18:53:04.402Z,5.95
2024-02-05T18:55:31.962Z,4.70
2024-02-05T18:57:59.223Z,4.82
2024-02-05T19:00:26.527Z,4.72
2024-02-05T19:03:01.222Z,4.47
2024-02-05T19:05:29.740Z,5.50
2024-02-05T19:07:56.829Z,5.60
2024-02-05T19:10:23.730Z,6.97
2024-02-05T19:12:54.037Z,5.38
2024-02-05T19:15:21.077Z,4.93
2024-02-05T19:17:48.683Z,5.90
2024-02-05T19:20:15.968Z,5.28
2024-02-05T19:22:43.650Z,6.82
2024-02-05T19:25:10.740Z,5.72
2024-02-05T19:27:38.171Z,2.80
2024-02-05T19:30:06.295Z,4.82
2024-02-05T19:32:33.386Z,5.75
2024-02-05T19:35:00.809Z,6.25
2024-02-05T19:37:28.381Z,4.70
2024-02-05T19:39:56.404Z,5.07
2024-02-05T19:42:23.287Z,4.22
2024-02-05T19:44:50.549Z,4.47
2024-02-05T19:47:17.352Z,4.25
2024-02-05T19:49:44.634Z,6.20
2024-02-05T19:52:11.560Z,6.68
2024-02-05T19:54:38.520Z,7.25
2024-02-05T19:57:05.395Z,6.78
2024-02-05T19:59:32.785Z,4.20
2024-02-05T20:01:59.836Z,6.82
2024-02-05T20:04:28.086Z,6.93
2024-02-05T20:06:57.172Z,7.53
2024-02-05T20:09:24.535Z,5.18
2024-02-05T20:11:51.590Z,7.03
2024-02-05T20:14:18.562Z,6.72
2024-02-05T20:16:45.793Z,6.95
2024-02-05T20:19:12.815Z,4.63
2024-02-05T20:21:39.779Z,6.75
2024-02-05T20:24:06.823Z,6.57
2024-02-05T20:26:35.134Z,5.82
2024-02-05T20:29:02.183Z,6.32
2024-02-05T20:31:32.449Z,4.90
2024-02-05T20:34:01.480Z,6.20
2024-02-05T20:36:28.523Z,4.10
2024-02-05T20:38:55.449Z,5.88
2024-02-05T20:41:22.639Z,5.57
2024-02-05T20:43:53.883Z,6.90
2024-02-05T20:46:21.175Z,6.97
2024-02-05T20:48:49.996Z,6.32
2024-02-05T20:51:17.286Z,6.15
2024-02-05T20:53:44.832Z,5.95
2024-02-05T20:56:11.698Z,6.13
2024-02-05T20:58:38.857Z,7.03
2024-02-05T21:01:05.857Z,6.63
2024-02-05T21:03:36.618Z,6.43
2024-02-05T21:06:04.690Z,6.55
2024-02-05T21:08:31.729Z,6.97
2024-02-05T21:11:01.045Z,6.72
2024-02-05T21:13:28.725Z,6.60
2024-02-05T21:15:55.639Z,6.25
2024-02-05T21:18:22.534Z,8.05
2024-02-05T21:20:49.410Z,7.63
2024-02-05T21:23:16.577Z,8.10
2024-02-05T21:25:43.505Z,8.23
2024-02-05T21:28:10.546Z,7.03
2024-02-05T21:30:39.952Z,7.43
2024-02-05T21:33:07.960Z,7.90
2024-02-05T21:35:34.817Z,7.25
2024-02-05T21:38:01.711Z,6.60
2024-02-05T21:40:28.583Z,6.90
2024-02-05T21:42:55.410Z,6.82
2024-02-05T21:45:22.547Z,6.72
2024-02-05T21:47:49.726Z,6.85
2024-02-05T21:50:16.802Z,6.85
2024-02-05T21:52:43.981Z,5.75
2024-02-05T21:55:10.984Z,4.65
2024-02-05T21:57:38.880Z,5.72
2024-02-05T22:00:06.639Z,6.20
2024-02-05T22:02:34.137Z,5.57
2024-02-05T22:05:01.046Z,5.03
2024-02-05T22:07:28.286Z,6.07
2024-02-05T22:09:55.580Z,6.50
2024-02-05T22:12:22.997Z,4.93
2024-02-05T22:14:49.948Z,5.82
2024-02-05T22:17:16.960Z,5.15
2024-02-05T22:19:43.896Z,5.07
2024-02-05T22:22:14.008Z,7.15
2024-02-05T22:24:41.208Z,5.93
2024-02-05T22:27:09.012Z,5.32
2024-02-05T22:29:36.924Z,5.75
2024-02-05T22:32:04.675Z,5.55
2024-02-05T22:34:32.898Z,5.57
2024-02-05T22:37:00.612Z,3.50
2024-02-05T22:39:27.427Z,4.30
2024-02-05T22:41:54.326Z,5.22
2024-02-05T22:44:21.220Z,5.78
2024-02-05T22:46:48.056Z,6.07
2024-02-05T22:49:15.201Z,4.97
2024-02-05T22:51:41.971Z,6.32
2024-02-05T22:54:08.744Z,6.20
2024-02-05T22:56:35.635Z,5.95
2024-02-05T22:59:02.467Z,4.28
2024-02-05T23:01:29.736Z,5.28
2024-02-05T23:03:59.473Z,4.78
2024-02-05T23:06:28.870Z,4.93
2024-02-05T23:08:56.422Z,5.95
2024-02-05T23:11:23.667Z,4.43
2024-02-05T23:13:50.834Z,5.30
2024-02-05T23:16:19.038Z,5.70
2024-02-05T23:18:46.052Z,5.45
2024-02-05T23:21:13.948Z,4.70
2024-02-05T23:23:40.846Z,5.38
2024-02-05T23:26:08.119Z,5.55
2024-02-05T23:28:35.141Z,5.55
2024-02-05T23:31:02.439Z,3.45
2024-02-05T23:33:29.395Z,6.35
2024-02-05T23:35:56.464Z,5.95
2024-02-05T23:38:23.250Z,6.18
2024-02-05T23:40:52.627Z,4.70
2024-02-05T23:43:19.724Z,5.72
2024-02-05T23:45:46.572Z,5.55
2024-02-05T23:48:13.422Z,4.97
2024-02-05T23:50:40.638Z,5.22
2024-02-05T23:53:07.532Z,5.53
2024-02-05T23:55:36.025Z,4.53
2024-02-05T23:58:02.921Z,4.47
